| time (UTC) | temp F | wind direction | speed MPH | gust MPH | rain 1hr in | rain 24hr in | rain mn in | humidity % | barometer mb |
| 20260906173011 | 62 | 211 | 2.0 | 7.0 | 0.00 | 0.00 | 0.00 | 76 | 1020.7 |
| 20260906171511 | 62 | 197 | 2.0 | 5.0 | 0.00 | 0.00 | 0.00 | 76 | 1020.6 |
| 20260906170008 | 62 | 219 | 2.0 | 5.0 | 0.00 | 0.00 | 0.00 | 76 | 1020.5 |
| 20260906164505 | 63 | 195 | 3.0 | 6.0 | 0.00 | 0.00 | 0.00 | 76 | 1020.6 |
| 20260906163005 | 63 | 187 | 4.0 | 7.0 | 0.00 | 0.00 | 0.00 | 76 | 1020.6 |
| 20260906161503 | 63 | 190 | 2.0 | 6.0 | 0.00 | 0.00 | 0.00 | 76 | 1020.7 |
| 20260906160002 | 64 | 206 | 3.0 | 7.0 | 0.00 | 0.00 | 0.00 | 76 | 1020.8 |
| 20260906154559 | 64 | 183 | 3.0 | 7.0 | 0.00 | 0.00 | 0.00 | 75 | 1020.8 |
| 20260906153056 | 65 | 160 | 2.0 | 6.0 | 0.00 | 0.00 | 0.00 | 75 | 1020.8 |
| 20260906151555 | 65 | 152 | 3.0 | 8.0 | 0.00 | 0.00 | 0.00 | 74 | 1020.8 |
| 20260906150052 | 65 | 178 | 6.0 | 12.0 | 0.00 | 0.00 | 0.00 | 74 | 1020.8 |
| 20260906144605 | 66 | 135 | 6.0 | 12.0 | 0.00 | 0.00 | 0.00 | 74 | 1020.8 |
| 20260906143044 | 66 | 140 | 6.0 | 20.0 | 0.00 | 0.00 | 0.00 | 73 | 1020.9 |
| 20260906141541 | 66 | 143 | 7.0 | 12.0 | 0.00 | 0.00 | 0.00 | 73 | 1020.8 |
| 20260906140038 | 67 | 160 | 5.0 | 13.0 | 0.00 | 0.00 | 0.00 | 73 | 1020.8 |
| 20260906134536 | 67 | 143 | 7.0 | 15.0 | 0.00 | 0.00 | 0.00 | 73 | 1020.8 |
| 20260906133034 | 67 | 128 | 4.0 | 13.0 | 0.00 | 0.00 | 0.00 | 73 | 1020.7 |
| 20260906131538 | 67 | 172 | 5.0 | 13.0 | 0.00 | 0.00 | 0.00 | 73 | 1020.7 |
| 20260906130033 | 68 | 146 | 9.0 | 16.0 | 0.00 | 0.00 | 0.00 | 73 | 1020.5 |
| 20260906124529 | 68 | 138 | 6.0 | 20.0 | 0.00 | 0.00 | 0.00 | 72 | 1020.4 |
| 20260906123037 | 68 | 148 | 7.0 | 15.0 | 0.00 | 0.00 | 0.00 | 73 | 1020.4 |
| 20260906121525 | 69 | 130 | 7.0 | 14.0 | 0.00 | 0.00 | 0.00 | 73 | 1020.3 |
| 20260906120022 | 69 | 148 | 6.0 | 11.0 | 0.00 | 0.00 | 0.00 | 73 | 1020.0 |
| 20260906114530 | 70 | 132 | 6.0 | 16.0 | 0.00 | 0.00 | 0.00 | 74 | 1019.7 |
| 20260906113015 | 70 | 148 | 9.0 | 17.0 | 0.00 | 0.00 | 0.00 | 74 | 1019.5 |
| 20260906111512 | 71 | 108 | 9.0 | 24.0 | 0.00 | 0.00 | 0.00 | 76 | 1019.3 |
| 20260906110012 | 71 | 123 | 8.0 | 20.0 | 0.00 | 0.00 | 0.00 | 76 | 1019.1 |
| 20260906103005 | 72 | 122 | 7.0 | 19.0 | 0.00 | 0.00 | 0.00 | 76 | 1018.7 |
| 20260906101502 | 72 | 133 | 8.0 | 20.0 | 0.00 | 0.00 | 0.00 | 76 | 1018.3 |
| 20260906100104 | 73 | 138 | 10.0 | 17.0 | 0.00 | 0.00 | 0.00 | 75 | 1017.9 |
| 20260906094611 | 74 | 167 | 7.0 | 18.0 | 0.00 | 0.00 | 0.00 | 74 | 1017.5 |
| 20260906093127 | 75 | 159 | 6.0 | 17.0 | 0.00 | 0.00 | 0.00 | 71 | 1017.2 |
| 20260906091605 | 77 | 116 | 6.0 | 19.0 | 0.00 | 0.00 | 0.00 | 65 | 1016.7 |
| 20260906090053 | 83 | 82 | 2.0 | 6.0 | 0.00 | 0.00 | 0.00 | 27 | 1016.0 |
| 20260906084551 | 84 | 253 | 2.0 | 9.0 | 0.00 | 0.00 | 0.00 | 27 | 1015.3 |
| 20260906083051 | 84 | 227 | 3.0 | 12.0 | 0.00 | 0.00 | 0.00 | 28 | 1014.9 |
| 20260906081550 | 85 | 269 | 3.0 | 7.0 | 0.00 | 0.00 | 0.00 | 28 | 1014.6 |
| 20260906080049 | 85 | 262 | 2.0 | 10.0 | 0.00 | 0.00 | 0.00 | 28 | 1014.4 |
| 20260906074547 | 86 | 238 | 1.0 | 12.0 | 0.00 | 0.00 | 0.00 | 27 | 1014.0 |
| 20260906073046 | 87 | 293 | 4.0 | 15.0 | 0.00 | 0.00 | 0.00 | 27 | 1013.8 |
| 20260906071545 | 88 | 167 | 2.0 | 7.0 | 0.00 | 0.00 | 0.00 | 25 | 1013.5 |
| 20260906070049 | 89 | 210 | 1.0 | 6.0 | 0.00 | 0.00 | 0.00 | 26 | 1013.2 |
| 20260906064542 | 90 | 269 | 3.0 | 17.0 | 0.00 | 0.00 | 0.00 | 24 | 1013.0 |
| 20260906063041 | 91 | 200 | 8.0 | 16.0 | 0.00 | 0.00 | 0.00 | 23 | 1012.8 |
| 20260906061539 | 92 | 233 | 4.0 | 11.0 | 0.00 | 0.00 | 0.00 | 24 | 1012.7 |
| 20260906060037 | 92 | 166 | 6.0 | 14.0 | 0.00 | 0.00 | 0.00 | 26 | 1012.7 |
| 20260906054540 | 92 | 252 | 3.0 | 11.0 | 0.00 | 0.00 | 0.00 | 27 | 1012.6 |
| 20260906053030 | 93 | 204 | 4.0 | 11.0 | 0.00 | 0.00 | 0.00 | 26 | 1012.4 |
| 20260906051532 | 93 | 296 | 4.0 | 10.0 | 0.00 | 0.00 | 0.00 | 27 | 1012.4 |
| 20260906050026 | 93 | 226 | 9.0 | 20.0 | 0.00 | 0.00 | 0.00 | 26 | 1012.4 |
| 20260906044525 | 91 | 248 | 6.0 | 15.0 | 0.00 | 0.00 | 0.00 | 27 | 1012.7 |
| 20260906043023 | 92 | 191 | 7.0 | 15.0 | 0.00 | 0.00 | 0.00 | 27 | 1012.6 |
| 20260906041629 | 93 | 193 | 5.0 | 20.0 | 0.00 | 0.00 | 0.00 | 27 | 1012.5 |
| 20260906040024 | 93 | 248 | 6.0 | 14.0 | 0.00 | 0.00 | 0.00 | 27 | 1012.6 |
| 20260906034515 | 92 | 303 | 7.0 | 24.0 | 0.00 | 0.00 | 0.00 | 29 | 1012.8 |
| 20260906033013 | 92 | 293 | 8.0 | 18.0 | 0.00 | 0.00 | 0.00 | 31 | 1012.6 |
| 20260906031514 | 92 | 311 | 8.0 | 16.0 | 0.00 | 0.00 | 0.00 | 30 | 1013.1 |
| 20260906030009 | 92 | 276 | 6.0 | 14.0 | 0.00 | 0.00 | 0.00 | 32 | 1013.3 |
| 20260906024507 | 92 | 286 | 6.0 | 16.0 | 0.00 | 0.00 | 0.00 | 32 | 1013.8 |
| 20260906023054 | 92 | 197 | 6.0 | 15.0 | 0.00 | 0.00 | 0.00 | 32 | 1014.1 |
| 20260906021550 | 91 | 274 | 3.0 | 12.0 | 0.00 | 0.00 | 0.00 | 31 | 1014.4 |
| 20260906020044 | 90 | 260 | 4.0 | 12.0 | 0.00 | 0.00 | 0.00 | 35 | 1014.6 |
| 20260906014607 | 90 | 335 | 4.0 | 9.0 | 0.00 | 0.00 | 0.00 | 35 | 1014.9 |
| 20260906013045 | 89 | 227 | 4.0 | 12.0 | 0.00 | 0.00 | 0.00 | 36 | 1015.1 |
| 20260906011534 | 88 | 314 | 4.0 | 11.0 | 0.00 | 0.00 | 0.00 | 38 | 1015.3 |
| 20260906010030 | 88 | 283 | 3.0 | 10.0 | 0.00 | 0.00 | 0.00 | 38 | 1015.6 |
| 20260906004526 | 86 | 324 | 5.0 | 12.0 | 0.00 | 0.00 | 0.00 | 38 | 1016.0 |
| 20260906003021 | 86 | 293 | 6.0 | 11.0 | 0.00 | 0.00 | 0.00 | 41 | 1016.1 |
| 20260906001522 | 84 | 296 | 8.0 | 14.0 | 0.00 | 0.00 | 0.00 | 42 | 1016.3 |
| 20260906000013 | 82 | 223 | 4.0 | 8.0 | 0.00 | 0.00 | 0.00 | 59 | 1016.3 |
| 20260905234509 | 80 | 312 | 4.0 | 7.0 | 0.00 | 0.00 | 0.00 | 59 | 1016.5 |
| 20260905233005 | 77 | 35 | 2.0 | 5.0 | 0.00 | 0.00 | 0.00 | 66 | 1016.4 |
| 20260905231559 | 75 | 269 | 1.0 | 5.0 | 0.00 | 0.00 | 0.00 | 70 | 1016.5 |
| 20260905230055 | 74 | 349 | 1.0 | 5.0 | 0.00 | 0.00 | 0.00 | 74 | 1016.7 |
| 20260905224551 | 72 | 323 | 2.0 | 4.0 | 0.00 | 0.00 | 0.00 | 79 | 1017.0 |
| 20260905223047 | 71 | 327 | 2.0 | 4.0 | 0.00 | 0.00 | 0.00 | 82 | 1017.1 |
| 20260905221605 | 69 | 178 | 2.0 | 5.0 | 0.00 | 0.00 | 0.00 | 85 | 1017.2 |
| 20260905220041 | 69 | 124 | 4.0 | 8.0 | 0.00 | 0.00 | 0.00 | 87 | 1017.2 |
| 20260905214537 | 67 | 127 | 1.0 | 5.0 | 0.00 | 0.00 | 0.00 | 92 | 1017.0 |
| 20260905213045 | 64 | 297 | 2.0 | 4.0 | 0.00 | 0.00 | 0.00 | 95 | 1016.8 |
| 20260905211537 | 63 | 295 | 3.0 | 5.0 | 0.00 | 0.00 | 0.00 | 95 | 1016.7 |
| 20260905210036 | 63 | 309 | 2.0 | 4.0 | 0.00 | 0.00 | 0.00 | 95 | 1016.6 |
| 20260905204530 | 63 | 344 | 1.0 | 5.0 | 0.00 | 0.00 | 0.00 | 95 | 1016.5 |
| 20260905203027 | 63 | 307 | 3.0 | 6.0 | 0.00 | 0.00 | 0.00 | 95 | 1016.6 |
| 20260905201526 | 63 | 257 | 1.0 | 4.0 | 0.00 | 0.00 | 0.00 | 95 | 1016.6 |
| 20260905200023 | 62 | 314 | 1.0 | 2.0 | 0.00 | 0.00 | 0.00 | 96 | 1016.7 |
| 20260905194521 | 63 | 303 | 0.0 | 3.0 | 0.00 | 0.00 | 0.00 | 95 | 1016.8 |
| 20260905193021 | 63 | 314 | 1.0 | 5.0 | 0.00 | 0.00 | 0.00 | 95 | 1016.8 |
| 20260905191517 | 63 | 135 | 0.0 | 4.0 | 0.00 | 0.00 | 0.00 | 95 | 1016.6 |
| 20260905190016 | 63 | 206 | 1.0 | 3.0 | 0.00 | 0.00 | 0.00 | 95 | 1016.5 |
| 20260905184522 | 63 | 290 | 2.0 | 3.0 | 0.00 | 0.00 | 0.00 | 95 | 1016.4 |
| 20260905183015 | 62 | 324 | 1.0 | 5.0 | 0.00 | 0.00 | 0.00 | 95 | 1016.4 |
| 20260905181512 | 62 | 305 | 2.0 | 4.0 | 0.00 | 0.00 | 0.00 | 95 | 1016.8 |
| 20260905180016 | 62 | 178 | 1.0 | 3.0 | 0.00 | 0.00 | 0.00 | 95 | 1016.3 |
| 20260905174510 | 62 | 269 | 0.0 | 2.0 | 0.00 | 0.00 | 0.00 | 95 | 1016.0 |